Time;durP1;ratioP1;P1;durP2;ratioP2;P2;SDS_P1;SDS_P2;PMS_P1;PMS_P2;Temp;Humidity;BMP_temperature;BMP_pressure;BME280_temperature;BME280_humidity;BME280_pressure;Samples;Min_cycle;Max_cycle;Signal;HPM_P1;HPM_P2
2021/03/06 00:00:57;;;;;;;12.37;5.73;;;;;;;-3.15;100.00;102718.25;4990614;28;20045;-71
2021/03/06 00:03:22;;;;;;;16.27;5.85;;;;;;;-3.26;100.00;102719.91;4990876;28;20697;-71
2021/03/06 00:05:48;;;;;;;9.57;4.63;;;;;;;-3.33;100.00;102715.88;4991637;28;20149;-71
2021/03/06 00:08:13;;;;;;;11.83;4.77;;;;;;;-3.18;100.00;102718.91;4986579;28;20100;-71
2021/03/06 00:10:39;;;;;;;15.83;5.00;;;;;;;-3.16;100.00;102717.38;4994408;28;20482;-72
2021/03/06 00:13:04;;;;;;;13.33;5.40;;;;;;;-3.16;100.00;102722.50;4984219;28;20030;-72
2021/03/06 00:15:30;;;;;;;16.77;6.07;;;;;;;-3.28;100.00;102727.41;4988725;28;20425;-72
2021/03/06 00:17:55;;;;;;;10.40;5.37;;;;;;;-3.31;100.00;102726.25;4989010;28;20027;-72
2021/03/06 00:20:21;;;;;;;12.17;5.17;;;;;;;-3.30;100.00;102723.81;4997259;28;20052;-71
2021/03/06 00:22:47;;;;;;;21.07;5.57;;;;;;;-3.27;100.00;102723.19;4996218;28;20034;-71
2021/03/06 00:25:15;;;;;;;13.00;4.72;;;;;;;-3.29;100.00;102724.72;4993191;28;20060;-71
2021/03/06 00:27:41;;;;;;;11.20;5.40;;;;;;;-3.32;100.00;102717.66;4989280;28;20030;-72
2021/03/06 00:30:09;;;;;;;11.70;4.30;;;;;;;-3.31;100.00;102731.34;4997085;28;20280;-72
2021/03/06 00:32:34;;;;;;;13.60;5.38;;;;;;;-3.41;100.00;102728.72;4989990;28;20455;-72
2021/03/06 00:35:00;;;;;;;14.70;5.17;;;;;;;-3.50;100.00;102727.91;4990197;28;20057;-72
2021/03/06 00:37:25;;;;;;;15.93;5.27;;;;;;;-3.56;100.00;102725.69;4989843;28;20038;-72
2021/03/06 00:39:51;;;;;;;14.67;5.37;;;;;;;-3.49;100.00;102729.72;4993128;28;20028;-72
2021/03/06 00:42:16;;;;;;;13.67;5.23;;;;;;;-3.58;100.00;102735.78;4993719;28;20486;-71
2021/03/06 00:44:42;;;;;;;14.30;5.63;;;;;;;-3.48;100.00;102726.41;5008356;28;20037;-72
2021/03/06 00:47:07;;;;;;;14.60;4.83;;;;;;;-3.44;100.00;102731.00;4990465;28;20026;-72
2021/03/06 00:49:33;;;;;;;17.97;5.33;;;;;;;-3.42;100.00;102725.28;4997049;28;20030;-72
2021/03/06 00:51:58;;;;;;;10.70;4.93;;;;;;;-3.33;100.00;102725.22;4994488;28;20030;-72
2021/03/06 00:54:24;;;;;;;11.83;5.43;;;;;;;-3.42;100.00;102721.81;4998828;28;20090;-72
2021/03/06 00:56:49;;;;;;;12.60;5.00;;;;;;;-3.41;100.00;102723.63;4994183;28;20029;-72
2021/03/06 00:59:14;;;;;;;13.40;4.77;;;;;;;-3.43;100.00;102722.59;4988834;28;20109;-71
2021/03/06 01:01:40;;;;;;;9.07;4.47;;;;;;;-3.31;100.00;102722.03;4992234;28;20038;-72
2021/03/06 01:04:05;;;;;;;13.23;4.63;;;;;;;-3.32;100.00;102719.34;4996300;28;20121;-72
2021/03/06 01:06:31;;;;;;;11.80;4.40;;;;;;;-3.22;100.00;102727.06;4994870;28;20037;-72
2021/03/06 01:08:56;;;;;;;16.20;5.27;;;;;;;-3.29;100.00;102722.16;4996846;28;20034;-72
2021/03/06 01:11:22;;;;;;;15.63;4.63;;;;;;;-3.15;100.00;102718.25;4997015;28;20438;-72
2021/03/06 01:13:47;;;;;;;16.00;4.77;;;;;;;-2.95;100.00;102720.94;4991537;28;20435;-72
2021/03/06 01:16:13;;;;;;;12.43;4.73;;;;;;;-2.81;100.00;102722.16;4991575;28;20368;-72
2021/03/06 01:18:38;;;;;;;14.53;5.87;;;;;;;-2.81;100.00;102719.59;4993881;28;20045;-72
2021/03/06 01:21:06;;;;;;;13.30;4.80;;;;;;;-2.79;100.00;102713.84;4984346;28;20023;-72
2021/03/06 01:23:31;;;;;;;15.88;4.38;;;;;;;-2.74;100.00;102709.13;4984286;28;20085;-72
2021/03/06 01:25:57;;;;;;;15.30;5.47;;;;;;;-2.73;100.00;102723.72;4992139;28;20467;-71
2021/03/06 01:28:22;;;;;;;12.37;4.90;;;;;;;-2.59;100.00;102718.13;4994930;28;20373;-72
2021/03/06 01:30:48;;;;;;;15.40;4.03;;;;;;;-2.52;100.00;102717.94;4994624;28;20026;-72
2021/03/06 01:33:14;;;;;;;11.17;5.10;;;;;;;-2.51;100.00;102722.28;4995350;28;20029;-72
2021/03/06 01:35:39;;;;;;;12.90;4.77;;;;;;;-2.40;100.00;102721.53;4993978;28;20037;-72
2021/03/06 01:38:05;;;;;;;8.80;4.17;;;;;;;-2.34;100.00;102707.44;4995105;28;20265;-72
2021/03/06 01:40:33;;;;;;;9.97;3.83;;;;;;;-2.22;100.00;102711.06;4992264;28;20037;-72
2021/03/06 01:43:00;;;;;;;13.77;3.73;;;;;;;-2.08;100.00;102708.00;4987611;28;20041;-72
2021/03/06 01:45:26;;;;;;;10.17;4.20;;;;;;;-2.05;100.00;102705.72;4993996;28;20403;-72
2021/03/06 01:47:51;;;;;;;7.50;4.00;;;;;;;-2.04;100.00;102715.19;4990742;28;20293;-72
2021/03/06 01:50:28;;;;;;;10.60;4.40;;;;;;;-2.05;100.00;102705.72;4991201;28;20042;-72
2021/03/06 01:52:54;;;;;;;10.63;3.87;;;;;;;-1.94;100.00;102702.41;4993611;28;20027;-72
2021/03/06 01:55:22;;;;;;;8.73;3.37;;;;;;;-1.95;100.00;102690.31;4993533;28;20289;-72
2021/03/06 01:57:49;;;;;;;15.67;3.83;;;;;;;-1.95;100.00;102694.53;4993730;28;20058;-72
2021/03/06 02:00:15;;;;;;;13.90;3.93;;;;;;;-1.98;100.00;102695.19;4992861;28;20717;-73
2021/03/06 02:02:42;;;;;;;11.23;3.73;;;;;;;-1.91;100.00;102700.09;4992202;28;20285;-74
2021/03/06 02:05:09;;;;;;;9.63;3.87;;;;;;;-1.86;100.00;102701.34;5007261;23;20042;-68
2021/03/06 02:07:34;;;;;;;7.27;4.03;;;;;;;-1.73;100.00;102697.25;4993673;28;20278;-70
2021/03/06 02:10:01;;;;;;;15.13;3.80;;;;;;;-1.69;100.00;102696.75;4993132;28;20634;-70
2021/03/06 02:12:54;;;;;;;11.87;3.30;;;;;;;-1.66;100.00;102699.56;4993405;28;20041;-70
2021/03/06 02:15:37;;;;;;;11.27;3.47;;;;;;;-1.63;100.00;102690.44;4990161;28;20285;-70
2021/03/06 02:18:16;;;;;;;7.20;3.00;;;;;;;-1.66;100.00;102692.75;4993029;28;20084;-70
2021/03/06 02:21:03;;;;;;;8.87;3.40;;;;;;;-1.68;100.00;102691.75;4992573;28;20296;-71
2021/03/06 02:24:17;;;;;;;7.27;3.10;;;;;;;-1.76;100.00;102695.31;4993915;28;20261;-70
2021/03/06 02:26:53;;;;;;;7.63;3.23;;;;;;;-1.89;100.00;102684.81;4971476;28;20270;-70
2021/03/06 02:29:38;;;;;;;8.17;2.83;;;;;;;-1.89;100.00;102685.72;4993021;28;20819;-70
2021/03/06 02:32:30;;;;;;;8.17;3.30;;;;;;;-2.02;100.00;102682.91;4991970;28;20324;-70
2021/03/06 02:35:11;;;;;;;10.23;3.57;;;;;;;-1.94;100.00;102686.09;4987976;28;20313;-70
2021/03/06 02:37:42;;;;;;;11.27;3.43;;;;;;;-2.06;100.00;102680.81;4991360;28;20344;-70
2021/03/06 02:40:10;;;;;;;8.53;3.30;;;;;;;-2.00;100.00;102680.47;4994439;28;20756;-70
2021/03/06 02:42:37;;;;;;;10.10;3.37;;;;;;;-1.98;100.00;102679.81;4993622;28;20652;-70
2021/03/06 02:45:05;;;;;;;8.23;3.40;;;;;;;-1.89;100.00;102687.38;4993075;28;20291;-70
2021/03/06 02:47:30;;;;;;;9.53;3.90;;;;;;;-1.89;100.00;102683.16;4993286;28;20836;-70
2021/03/06 02:49:57;;;;;;;12.33;4.23;;;;;;;-1.86;100.00;102688.53;4993351;28;20424;-70
2021/03/06 02:52:24;;;;;;;8.63;3.83;;;;;;;-1.72;100.00;102684.53;4991290;28;20022;-70
2021/03/06 02:54:50;;;;;;;9.97;3.87;;;;;;;-1.75;100.00;102685.97;4991908;28;20313;-70
2021/03/06 02:57:53;;;;;;;9.93;4.00;;;;;;;-1.83;100.00;102675.97;4991968;28;20289;-70
2021/03/06 03:00:28;;;;;;;7.27;3.50;;;;;;;-1.76;100.00;102677.38;4991425;28;20820;-70
2021/03/06 03:03:27;;;;;;;7.50;3.30;;;;;;;-1.57;100.00;102672.13;4982652;28;20757;-70
2021/03/06 03:06:42;;;;;;;11.10;4.30;;;;;;;-1.55;100.00;102668.00;4991833;28;20305;-70
2021/03/06 03:09:11;;;;;;;15.40;4.73;;;;;;;-1.46;100.00;102673.84;4980044;28;20296;-70
2021/03/06 03:11:55;;;;;;;12.17;4.17;;;;;;;-1.45;100.00;102675.69;4990767;28;20292;-70
2021/03/06 03:14:47;;;;;;;11.70;4.13;;;;;;;-1.38;100.00;102677.94;4989098;28;20277;-70
2021/03/06 03:17:18;;;;;;;10.05;3.92;;;;;;;-1.23;100.00;102670.59;4989251;28;20284;-70
2021/03/06 03:19:56;;;;;;;11.70;3.27;;;;;;;-1.09;100.00;102669.13;4992120;28;20031;-70
2021/03/06 03:22:25;;;;;;;8.63;3.37;;;;;;;-1.03;100.00;102672.22;4993015;28;20270;-70
2021/03/06 03:24:55;;;;;;;10.20;3.80;;;;;;;-0.98;100.00;102666.66;4992345;28;20289;-70
2021/03/06 03:27:25;;;;;;;8.63;3.57;;;;;;;-1.04;100.00;102661.03;4991892;28;20289;-70
2021/03/06 03:29:52;;;;;;;9.13;3.30;;;;;;;-1.02;100.00;102668.88;4991364;28;20342;-70
2021/03/06 03:32:18;;;;;;;14.97;4.20;;;;;;;-1.04;100.00;102670.41;4992582;28;20334;-70
2021/03/06 03:34:46;;;;;;;9.43;3.67;;;;;;;-1.06;100.00;102662.59;4992131;28;20417;-70
2021/03/06 03:37:12;;;;;;;7.57;3.50;;;;;;;-1.02;100.00;102661.16;4992169;28;20293;-70
2021/03/06 03:39:38;;;;;;;8.63;3.43;;;;;;;-1.03;100.00;102656.81;4991197;28;20384;-70
2021/03/06 03:42:06;;;;;;;10.20;3.80;;;;;;;-1.01;100.00;102650.13;4991358;28;20289;-70
2021/03/06 03:44:33;;;;;;;9.37;3.47;;;;;;;-0.93;100.00;102649.97;4991940;28;20380;-70
2021/03/06 03:46:59;;;;;;;6.83;3.37;;;;;;;-0.88;100.00;102647.75;4997537;28;20368;-70
2021/03/06 03:49:25;;;;;;;10.97;3.50;;;;;;;-0.85;100.00;102657.34;4991335;28;20294;-70
2021/03/06 03:51:51;;;;;;;9.23;3.20;;;;;;;-0.85;100.00;102647.97;4991940;28;20031;-70
2021/03/06 03:54:16;;;;;;;8.50;3.53;;;;;;;-0.85;100.00;102655.69;4992339;28;20709;-70
2021/03/06 03:56:43;;;;;;;7.80;3.53;;;;;;;-0.86;100.00;102660.69;4990040;28;20030;-70
2021/03/06 03:59:09;;;;;;;7.93;3.73;;;;;;;-0.93;100.00;102661.91;4991982;28;20022;-70
2021/03/06 04:01:42;;;;;;;13.80;3.70;;;;;;;-0.99;100.00;102663.97;4987894;28;20288;-70
2021/03/06 04:04:18;;;;;;;7.97;3.30;;;;;;;-1.09;100.00;102670.06;4991223;28;20320;-70
2021/03/06 04:06:43;;;;;;;7.43;3.37;;;;;;;-0.99;100.00;102661.41;4990786;28;20309;-70
2021/03/06 04:09:09;;;;;;;8.33;3.40;;;;;;;-1.00;100.00;102672.44;4992615;28;20289;-70
2021/03/06 04:11:34;;;;;;;8.83;3.57;;;;;;;-0.99;100.00;102671.66;4990239;28;20338;-70
2021/03/06 04:14:00;;;;;;;6.50;2.90;;;;;;;-0.96;100.00;102669.38;4992742;28;20030;-70
2021/03/06 04:16:25;;;;;;;9.37;3.90;;;;;;;-0.93;100.00;102685.91;4990847;28;20030;-70
2021/03/06 04:18:51;;;;;;;12.90;3.97;;;;;;;-0.90;100.00;102685.25;4990730;28;20033;-70
2021/03/06 04:21:16;;;;;;;7.30;3.40;;;;;;;-0.88;100.00;102683.69;4990037;28;20030;-70
2021/03/06 04:23:42;;;;;;;10.27;3.83;;;;;;;-0.85;100.00;102689.06;4991552;28;20022;-70
2021/03/06 04:26:07;;;;;;;12.17;3.73;;;;;;;-0.81;100.00;102690.22;4991452;28;20089;-70
2021/03/06 04:28:32;;;;;;;7.23;3.50;;;;;;;-0.78;100.00;102686.22;4992779;28;20025;-70
2021/03/06 04:30:58;;;;;;;8.87;3.37;;;;;;;-0.79;100.00;102684.44;4991563;28;20089;-70
2021/03/06 04:33:23;;;;;;;8.43;3.67;;;;;;;-0.80;100.00;102682.63;4997817;28;20018;-70
2021/03/06 04:35:49;;;;;;;12.23;4.37;;;;;;;-0.84;100.00;102675.47;4989992;28;20034;-70
2021/03/06 04:38:14;;;;;;;9.23;3.57;;;;;;;-0.84;100.00;102685.75;4992281;28;20022;-70
2021/03/06 04:40:40;;;;;;;8.07;3.77;;;;;;;-0.84;100.00;102690.88;4989098;28;20442;-70
2021/03/06 04:43:05;;;;;;;7.17;3.60;;;;;;;-0.87;100.00;102693.19;4992205;28;20026;-70
2021/03/06 04:45:31;;;;;;;7.00;3.40;;;;;;;-0.86;100.00;102692.41;4989693;28;20030;-70
2021/03/06 04:47:57;;;;;;;9.30;3.67;;;;;;;-0.84;100.00;102696.03;4992092;28;20029;-70
2021/03/06 04:50:23;;;;;;;10.10;3.47;;;;;;;-0.85;100.00;102701.91;4990348;28;20037;-70
2021/03/06 04:52:48;;;;;;;9.47;4.20;;;;;;;-0.88;100.00;102694.84;4989613;28;20281;-70
2021/03/06 04:55:14;;;;;;;8.97;4.10;;;;;;;-0.85;100.00;102696.78;4990882;28;20022;-70
2021/03/06 04:57:39;;;;;;;12.63;3.97;;;;;;;-0.83;100.00;102696.91;4990815;28;20125;-70
2021/03/06 05:00:07;;;;;;;11.17;3.90;;;;;;;-0.80;100.00;102698.06;4990148;28;20379;-70
2021/03/06 05:02:34;;;;;;;14.50;4.57;;;;;;;-0.77;100.00;102703.41;4991641;28;20038;-70
2021/03/06 05:05:00;;;;;;;7.53;4.10;;;;;;;-0.77;100.00;102698.28;4989322;28;20325;-70
2021/03/06 05:07:25;;;;;;;8.97;3.53;;;;;;;-0.76;100.00;102705.22;4990388;28;20328;-70
2021/03/06 05:09:51;;;;;;;11.97;3.83;;;;;;;-0.72;100.00;102699.56;4990456;28;20027;-70
2021/03/06 05:12:16;;;;;;;13.57;3.90;;;;;;;-0.68;100.00;102698.13;4990961;28;20105;-70
2021/03/06 05:14:42;;;;;;;8.60;3.70;;;;;;;-0.64;100.00;102693.34;4990359;28;20097;-70
2021/03/06 05:17:07;;;;;;;8.70;3.40;;;;;;;-0.58;100.00;102702.31;4991656;28;20528;-70
2021/03/06 05:19:33;;;;;;;6.40;3.13;;;;;;;-0.57;100.00;102701.53;4990824;28;20022;-70
2021/03/06 05:21:58;;;;;;;10.23;3.37;;;;;;;-0.57;100.00;102701.53;4990794;28;20109;-70
2021/03/06 05:24:24;;;;;;;6.50;3.07;;;;;;;-0.58;100.00;102692.03;4990573;28;20038;-70
2021/03/06 05:27:01;;;;;;;9.47;3.80;;;;;;;-0.58;100.00;102699.75;4990964;28;20560;-70
2021/03/06 05:29:27;;;;;;;9.50;3.60;;;;;;;-0.60;100.00;102691.94;4989675;28;20069;-70
2021/03/06 05:31:52;;;;;;;13.67;3.90;;;;;;;-0.63;100.00;102690.00;4991515;28;20265;-70
2021/03/06 05:34:18;;;;;;;8.13;4.30;;;;;;;-0.60;100.00;102674.84;4991094;28;20293;-70
2021/03/06 05:36:43;;;;;;;12.07;3.87;;;;;;;-0.55;100.00;102679.44;4993563;28;20027;-70
2021/03/06 05:39:11;;;;;;;12.73;4.10;;;;;;;-0.50;100.00;102679.00;4993738;28;20030;-70
2021/03/06 05:41:38;;;;;;;9.87;3.57;;;;;;;-0.47;100.00;102683.50;4994991;28;20030;-70
2021/03/06 05:44:04;;;;;;;9.27;3.40;;;;;;;-0.42;100.00;102677.03;4993680;28;20269;-70
2021/03/06 05:46:30;;;;;;;5.73;3.00;;;;;;;-0.37;100.00;102680.84;4993536;28;20281;-70
2021/03/06 05:48:56;;;;;;;8.87;3.17;;;;;;;-0.34;100.00;102686.25;4993862;28;20113;-70
2021/03/06 05:51:22;;;;;;;8.60;4.00;;;;;;;-0.32;100.00;102679.53;4994340;28;20423;-70
2021/03/06 05:53:51;;;;;;;8.27;3.60;;;;;;;-0.31;100.00;102686.47;4992838;28;20385;-70
2021/03/06 05:56:19;;;;;;;10.50;3.77;;;;;;;-0.32;100.00;102682.13;4993469;28;20286;-70
2021/03/06 05:58:47;;;;;;;7.97;3.80;;;;;;;-0.31;100.00;102676.19;4994288;28;20273;-70
2021/03/06 06:01:14;;;;;;;13.00;4.03;;;;;;;-0.25;100.00;102680.88;4994419;28;20258;-70
2021/03/06 06:03:42;;;;;;;11.20;4.00;;;;;;;-0.23;100.00;102695.69;4992679;28;20403;-70
2021/03/06 06:06:09;;;;;;;9.90;4.03;;;;;;;-0.16;100.00;102705.66;4992541;28;20652;-70
2021/03/06 06:08:35;;;;;;;10.70;3.20;;;;;;;-0.15;100.00;102702.28;4994281;28;20332;-70
2021/03/06 06:11:02;;;;;;;10.10;3.83;;;;;;;-0.13;100.00;102702.41;4993062;28;20368;-70
2021/03/06 06:13:28;;;;;;;9.97;3.20;;;;;;;-0.09;100.00;102705.34;4994150;28;20344;-70
2021/03/06 06:15:54;;;;;;;12.47;3.70;;;;;;;-0.08;100.00;102706.25;4993296;28;20453;-70
2021/03/06 06:18:20;;;;;;;6.10;3.03;;;;;;;-0.07;100.00;102702.88;4994120;28;20447;-70
2021/03/06 06:20:45;;;;;;;7.43;3.30;;;;;;;-0.05;100.00;102702.22;4993100;28;20289;-70
2021/03/06 06:23:16;;;;;;;10.47;3.30;;;;;;;-0.06;100.00;102703.00;4992883;28;20065;-70
2021/03/06 06:25:46;;;;;;;7.63;3.47;;;;;;;-0.03;100.00;102703.22;4992548;28;20558;-70
2021/03/06 06:28:12;;;;;;;6.17;3.37;;;;;;;-0.03;100.00;102703.22;4994004;28;20289;-70
2021/03/06 06:30:39;;;;;;;7.73;3.13;;;;;;;-0.01;100.00;102711.94;4991431;28;20292;-70
2021/03/06 06:33:04;;;;;;;7.23;3.50;;;;;;;0.03;100.00;102709.63;5002720;28;20034;-68
2021/03/06 06:35:39;;;;;;;5.07;3.10;;;;;;;0.04;100.00;102716.56;4993682;28;20277;-69
2021/03/06 06:38:06;;;;;;;8.17;3.20;;;;;;;0.08;100.00;102718.59;4993063;28;20023;-68
2021/03/06 06:40:35;;;;;;;7.30;3.10;;;;;;;0.12;100.00;102721.53;4992908;28;20281;-69
2021/03/06 06:43:01;;;;;;;10.70;3.80;;;;;;;0.17;100.00;102724.44;4992977;28;20293;-69
2021/03/06 06:45:36;;;;;;;10.37;3.30;;;;;;;0.22;100.00;102733.41;4992974;28;20304;-69
2021/03/06 06:48:09;;;;;;;7.37;3.47;;;;;;;0.24;100.00;102729.25;4990894;28;20293;-68
2021/03/06 06:50:35;;;;;;;9.97;3.57;;;;;;;0.31;100.00;102738.34;4993156;28;20281;-68
2021/03/06 06:53:00;;;;;;;6.47;3.07;;;;;;;0.36;100.00;102727.59;4992375;28;20769;-68
2021/03/06 06:55:41;;;;;;;8.83;3.60;;;;;;;0.38;100.00;102731.22;4993414;28;20452;-68
2021/03/06 06:58:07;;;;;;;6.90;2.87;;;;;;;0.47;100.00;102726.75;4991247;28;20014;-68
2021/03/06 07:00:34;;;;;;;5.23;2.87;;;;;;;0.53;100.00;102726.31;4992657;28;20285;-68
2021/03/06 07:03:04;;;;;;;8.90;3.20;;;;;;;0.59;100.00;102722.50;4992486;28;20026;-68
2021/03/06 07:05:35;;;;;;;7.23;2.90;;;;;;;0.67;100.00;102733.38;4991736;28;20392;-68
2021/03/06 07:08:03;;;;;;;7.60;3.33;;;;;;;0.69;100.00;102729.25;4991352;28;20297;-70
2021/03/06 07:10:47;;;;;;;5.63;2.63;;;;;;;0.64;100.00;102729.69;4992390;28;20320;-69
2021/03/06 07:13:14;;;;;;;6.67;3.03;;;;;;;0.75;100.00;102733.97;4984991;28;20270;-69
2021/03/06 07:15:42;;;;;;;6.07;2.50;;;;;;;0.71;100.00;102734.50;4991510;28;20325;-69
2021/03/06 07:18:17;;;;;;;8.43;3.23;;;;;;;0.77;100.00;102740.13;4992603;28;20266;-70
2021/03/06 07:20:44;;;;;;;10.23;3.33;;;;;;;0.86;100.00;102743.38;4992076;28;20826;-69
2021/03/06 07:23:21;;;;;;;8.80;3.33;;;;;;;0.90;100.00;102747.06;4992027;28;20288;-69
2021/03/06 07:25:51;;;;;;;6.17;2.83;;;;;;;0.90;100.00;102740.22;4992586;28;20278;-69
2021/03/06 07:28:17;;;;;;;5.87;2.53;;;;;;;0.93;100.00;102745.59;4991606;28;20324;-69
2021/03/06 07:30:42;;;;;;;7.70;3.10;;;;;;;1.03;100.00;102742.03;4992281;28;20786;-69
2021/03/06 07:33:13;;;;;;;6.07;2.63;;;;;;;1.09;100.00;102737.31;4989693;28;20108;-69
2021/03/06 07:35:41;;;;;;;11.27;4.17;;;;;;;1.10;100.00;102740.03;4987190;28;20034;-69
2021/03/06 07:38:14;;;;;;;5.73;2.63;;;;;;;1.12;100.00;102746.16;4991378;28;20281;-69
2021/03/06 07:40:41;;;;;;;8.20;2.87;;;;;;;1.22;100.00;102746.84;4992350;28;20372;-69
2021/03/06 07:43:17;;;;;;;6.83;2.60;;;;;;;1.13;100.00;102747.06;4991352;28;20602;-69
2021/03/06 07:45:45;;;;;;;6.23;2.70;;;;;;;1.25;100.00;102749.63;4993270;28;20261;-69
2021/03/06 07:48:15;;;;;;;8.77;3.00;;;;;;;1.53;100.00;102750.81;4990674;28;20286;-69
2021/03/06 07:50:50;;;;;;;5.77;2.47;;;;;;;1.67;100.00;102747.53;4992692;28;20273;-69
2021/03/06 07:53:17;;;;;;;5.43;2.80;;;;;;;1.97;100.00;102747.91;4991362;28;20389;-69
2021/03/06 07:55:43;;;;;;;5.43;2.30;;;;;;;1.99;100.00;102748.88;4991367;28;20313;-69
2021/03/06 07:58:13;;;;;;;6.50;3.07;;;;;;;2.29;100.00;102743.22;4988210;28;20282;-70
2021/03/06 08:00:55;;;;;;;12.37;3.07;;;;;;;2.22;100.00;102751.38;4988934;28;20281;-70
2021/03/06 08:03:36;;;;;;;7.53;2.63;;;;;;;2.05;100.00;102754.47;4977057;28;20291;-69
2021/03/06 08:06:18;;;;;;;7.90;2.47;;;;;;;2.29;100.00;102748.41;4991503;28;20305;-70
2021/03/06 08:08:46;;;;;;;4.57;2.10;;;;;;;2.16;100.00;102755.19;4990581;28;20289;-70
2021/03/06 08:11:15;;;;;;;6.20;2.33;;;;;;;2.22;100.00;102753.94;4989449;28;20292;-70
2021/03/06 08:13:41;;;;;;;7.30;2.40;;;;;;;2.59;100.00;102759.03;4991425;28;20297;-69
2021/03/06 08:16:24;;;;;;;5.53;2.13;;;;;;;2.69;100.00;102751.09;4989851;28;20308;-69
2021/03/06 08:19:10;;;;;;;5.83;2.27;;;;;;;2.54;100.00;102753.53;4995479;28;20030;-70
2021/03/06 08:21:44;;;;;;;5.90;2.00;;;;;;;2.69;100.00;102756.25;4991144;28;20285;-69
2021/03/06 08:24:16;;;;;;;6.30;1.90;;;;;;;2.64;100.00;102757.63;4992109;28;20265;-69
2021/03/06 08:27:03;;;;;;;6.60;2.55;;;;;;;2.97;100.00;102760.66;4990032;28;20281;-70
2021/03/06 08:29:29;;;;;;;6.30;2.20;;;;;;;2.84;100.00;102770.19;4989906;28;20034;-69
2021/03/06 08:32:04;;;;;;;8.93;2.33;;;;;;;2.86;100.00;102776.34;4991527;28;20289;-70
2021/03/06 08:34:40;;;;;;;5.60;2.13;;;;;;;2.74;100.00;102769.47;4983085;28;20666;-70
2021/03/06 08:37:21;;;;;;;6.90;2.40;;;;;;;2.89;100.00;102767.91;4987053;28;20331;-70
2021/03/06 08:39:49;;;;;;;8.43;2.60;;;;;;;2.94;100.00;102780.34;4991861;28;20269;-70
2021/03/06 08:42:17;;;;;;;9.37;2.57;;;;;;;2.83;100.00;102773.56;4991088;28;20285;-70
2021/03/06 08:44:43;;;;;;;6.00;2.20;;;;;;;2.86;100.00;102771.19;4992504;28;20258;-70
2021/03/06 08:47:10;;;;;;;8.33;2.47;;;;;;;3.12;100.00;102766.81;4991357;28;20828;-70
2021/03/06 08:49:37;;;;;;;9.10;2.30;;;;;;;3.15;100.00;102764.44;4991240;28;20297;-71
2021/03/06 08:52:03;;;;;;;4.47;2.40;;;;;;;3.37;100.00;102765.00;4989984;28;20285;-70
2021/03/06 08:54:38;;;;;;;7.50;2.53;;;;;;;3.58;100.00;102756.84;4992152;28;20262;-70
2021/03/06 08:57:04;;;;;;;7.00;2.03;;;;;;;3.69;100.00;102761.00;4991060;28;20689;-70
2021/03/06 08:59:39;;;;;;;7.90;2.17;;;;;;;3.82;100.00;102758.38;4990884;28;20331;-70
2021/03/06 09:02:20;;;;;;;4.80;1.90;;;;;;;3.95;100.00;102766.09;4985616;28;20089;-70
2021/03/06 09:04:47;;;;;;;7.87;2.20;;;;;;;4.24;100.00;102765.31;4990085;28;20851;-70
2021/03/06 09:07:26;;;;;;;5.53;2.70;;;;;;;4.06;100.00;102772.81;4991975;28;20269;-70
2021/03/06 09:09:51;;;;;;;7.43;2.50;;;;;;;4.35;100.00;102773.69;4993845;28;20858;-69
2021/03/06 09:12:17;;;;;;;4.37;2.10;;;;;;;4.08;100.00;102773.81;4999025;28;20045;-69
2021/03/06 09:14:42;;;;;;;7.27;1.97;;;;;;;4.02;100.00;102778.63;4993452;28;20483;-69
2021/03/06 09:17:12;;;;;;;5.23;2.27;;;;;;;4.33;100.00;102780.47;4994368;28;20018;-69
2021/03/06 09:19:37;;;;;;;7.83;1.97;;;;;;;4.22;100.00;102781.53;4995454;28;20551;-69
2021/03/06 09:22:05;;;;;;;8.03;2.33;;;;;;;4.18;100.00;102784.72;4993439;28;20061;-69
2021/03/06 09:24:48;;;;;;;7.03;2.03;;;;;;;4.22;100.00;102787.59;4994629;28;20026;-69
2021/03/06 09:27:14;;;;;;;;;;;;;;;4.50;100.00;102790.19;4990490;28;20026;-70
2021/03/06 09:29:41;;;;;;;5.23;1.67;;;;;;;4.32;100.00;102779.59;4994592;28;20263;-69
2021/03/06 09:32:07;;;;;;;6.97;1.97;;;;;;;4.41;100.00;102782.75;4992923;28;20026;-69
2021/03/06 09:34:37;;;;;;;7.97;2.00;;;;;;;4.52;100.00;102782.50;4993708;28;20638;-70
2021/03/06 09:37:16;;;;;;;7.40;2.00;;;;;;;4.30;100.00;102782.88;4995003;28;20045;-70
2021/03/06 09:39:42;;;;;;;6.80;2.30;;;;;;;4.26;100.00;102783.53;4993108;28;20486;-70
2021/03/06 09:42:08;;;;;;;5.37;2.23;;;;;;;4.40;100.00;102787.84;4993752;28;20089;-70
2021/03/06 09:44:34;;;;;;;5.63;1.97;;;;;;;4.55;100.00;102785.25;4994562;28;20106;-70
2021/03/06 09:47:00;;;;;;;6.70;1.97;;;;;;;4.55;100.00;102783.56;4992986;28;20092;-70
2021/03/06 09:49:34;;;;;;;5.27;1.60;;;;;;;4.78;100.00;102786.63;4994759;28;20427;-69
2021/03/06 09:51:59;;;;;;;7.20;2.00;;;;;;;5.02;100.00;102784.56;4992592;28;20092;-70
2021/03/06 09:54:26;;;;;;;5.47;2.07;;;;;;;5.46;98.33;102781.91;4992917;28;20109;-70
2021/03/06 09:56:53;;;;;;;4.03;1.73;;;;;;;5.70;95.69;102782.38;4994529;28;20044;-69
2021/03/06 09:59:20;;;;;;;4.57;1.93;;;;;;;5.18;97.34;102780.31;4994681;28;20032;-69
2021/03/06 10:01:46;;;;;;;4.83;1.93;;;;;;;5.12;100.00;102785.19;4994269;28;20034;-70
2021/03/06 10:04:25;;;;;;;4.93;1.63;;;;;;;5.02;99.24;102781.97;4992787;28;20030;-70
2021/03/06 10:06:52;;;;;;;5.50;1.80;;;;;;;4.92;98.96;102789.22;4994570;28;20483;-70
2021/03/06 10:09:20;;;;;;;5.00;1.70;;;;;;;4.80;99.07;102782.41;4993766;28;20022;-70
2021/03/06 10:12:09;;;;;;;5.00;2.27;;;;;;;5.13;100.00;102791.25;4982519;28;20399;-70
2021/03/06 10:14:36;;;;;;;5.27;1.67;;;;;;;5.03;100.00;102800.19;4988504;28;20081;-70
2021/03/06 10:17:08;;;;;;;4.20;1.60;;;;;;;5.07;100.00;102796.97;4992703;28;20066;-70
2021/03/06 10:19:45;;;;;;;5.73;2.00;;;;;;;4.92;100.00;102789.22;4985655;28;20501;-69
2021/03/06 10:22:13;;;;;;;5.73;2.30;;;;;;;4.63;100.00;102787.50;4989548;28;20080;-70
2021/03/06 10:24:51;;;;;;;6.00;2.00;;;;;;;5.09;100.00;102794.47;4988613;28;20737;-70
2021/03/06 10:27:17;;;;;;;3.67;2.00;;;;;;;5.57;100.00;102788.56;4987780;28;20750;-69
2021/03/06 10:29:42;;;;;;;5.97;2.47;;;;;;;5.58;100.00;102788.66;4998664;28;20022;-70
2021/03/06 10:32:08;;;;;;;4.60;1.80;;;;;;;5.78;100.00;102784.56;4990861;28;20148;-69
2021/03/06 10:34:35;;;;;;;7.67;2.00;;;;;;;5.63;100.00;102783.72;4990880;28;20030;-69
2021/03/06 10:37:19;;;;;;;9.23;2.00;;;;;;;5.12;100.00;102781.69;4999480;28;20037;-70
2021/03/06 10:40:12;;;;;;;2.43;1.33;;;;;;;5.03;100.00;102779.47;4987603;28;20066;-70
2021/03/06 10:42:50;;;;;;;5.43;1.40;;;;;;;5.58;100.00;102777.41;4990298;28;20461;-70
2021/03/06 10:45:30;;;;;;;3.97;1.43;;;;;;;6.03;100.00;102767.72;4989562;28;20034;-70
2021/03/06 10:48:01;;;;;;;4.30;1.43;;;;;;;6.36;100.00;102772.13;4990545;28;20080;-70
2021/03/06 10:50:38;;;;;;;5.13;1.60;;;;;;;6.69;98.36;102779.88;4991897;28;20513;-69
2021/03/06 10:53:18;;;;;;;5.07;1.20;;;;;;;6.63;97.54;102776.94;4990865;28;20501;-70
2021/03/06 10:55:45;;;;;;;2.90;1.33;;;;;;;5.93;96.46;102774.13;4991529;28;20037;-72
2021/03/06 10:58:11;;;;;;;4.83;1.63;;;;;;;6.01;97.65;102780.66;4990591;28;20402;-71
2021/03/06 11:00:38;;;;;;;6.07;1.60;;;;;;;5.37;100.00;102776.19;4989596;28;20026;-70
2021/03/06 11:03:05;;;;;;;5.97;1.63;;;;;;;5.48;100.00;102785.47;4976624;28;20081;-70
2021/03/06 11:05:32;;;;;;;5.13;1.57;;;;;;;5.29;100.00;102776.66;4986543;28;20565;-70
2021/03/06 11:08:17;;;;;;;3.73;1.63;;;;;;;4.94;100.00;102769.44;4990485;28;20034;-70
2021/03/06 11:10:46;;;;;;;4.23;1.87;;;;;;;5.18;100.00;102777.72;4990335;28;20092;-70
2021/03/06 11:13:12;;;;;;;5.77;2.20;;;;;;;5.47;100.00;102768.13;4990362;28;20038;-71
2021/03/06 11:15:51;;;;;;;5.10;1.97;;;;;;;5.80;100.00;102769.94;4996783;28;20030;-70
2021/03/06 11:18:18;;;;;;;5.23;1.60;;;;;;;5.93;100.00;102768.03;4987337;28;20029;-70
2021/03/06 11:20:44;;;;;;;4.87;2.00;;;;;;;6.68;100.00;102759.88;4989731;28;20034;-70
2021/03/06 11:23:10;;;;;;;4.03;1.60;;;;;;;6.63;97.13;102763.94;4989902;28;20042;-70
2021/03/06 11:25:35;;;;;;;4.33;1.70;;;;;;;6.39;98.24;102751.47;4989690;28;20030;-71
2021/03/06 11:28:06;;;;;;;4.57;1.70;;;;;;;6.54;97.33;102758.28;4989922;28;20034;-71
2021/03/06 11:30:34;;;;;;;3.00;1.40;;;;;;;7.00;95.03;102754.56;4987780;28;20022;-71